sensor_id;sensor_type;location;lat;lon;timestamp;P1;durP1;ratioP1;P2;durP2;ratioP2
54235;SDS011;40151;43.606;1.472;2022-12-07T00:01:23;16.65;;;12.50;;
54235;SDS011;40151;43.606;1.472;2022-12-07T00:03:51;16.63;;;12.57;;
54235;SDS011;40151;43.606;1.472;2022-12-07T00:06:18;16.00;;;12.27;;
54235;SDS011;40151;43.606;1.472;2022-12-07T00:08:44;15.20;;;11.05;;
54235;SDS011;40151;43.606;1.472;2022-12-07T00:11:23;15.60;;;11.68;;
54235;SDS011;40151;43.606;1.472;2022-12-07T00:13:53;14.40;;;10.70;;
54235;SDS011;40151;43.606;1.472;2022-12-07T00:16:24;14.45;;;11.20;;
54235;SDS011;40151;43.606;1.472;2022-12-07T00:18:52;16.35;;;11.38;;
54235;SDS011;40151;43.606;1.472;2022-12-07T00:21:21;14.73;;;11.32;;
54235;SDS011;40151;43.606;1.472;2022-12-07T00:23:49;15.32;;;11.25;;
54235;SDS011;40151;43.606;1.472;2022-12-07T00:26:16;14.25;;;10.40;;
54235;SDS011;40151;43.606;1.472;2022-12-07T00:28:45;14.73;;;10.85;;
54235;SDS011;40151;43.606;1.472;2022-12-07T00:31:13;14.25;;;11.20;;
54235;SDS011;40151;43.606;1.472;2022-12-07T00:33:40;12.45;;;10.27;;
54235;SDS011;40151;43.606;1.472;2022-12-07T00:36:10;14.57;;;11.35;;
54235;SDS011;40151;43.606;1.472;2022-12-07T00:38:38;14.75;;;10.95;;
54235;SDS011;40151;43.606;1.472;2022-12-07T00:41:05;14.55;;;10.40;;
54235;SDS011;40151;43.606;1.472;2022-12-07T00:43:32;14.63;;;10.43;;
54235;SDS011;40151;43.606;1.472;2022-12-07T00:45:58;15.90;;;11.18;;
54235;SDS011;40151;43.606;1.472;2022-12-07T00:48:24;13.15;;;10.10;;
54235;SDS011;40151;43.606;1.472;2022-12-07T00:50:50;14.80;;;10.27;;
54235;SDS011;40151;43.606;1.472;2022-12-07T00:53:16;15.43;;;10.50;;
54235;SDS011;40151;43.606;1.472;2022-12-07T00:55:42;14.57;;;10.00;;
54235;SDS011;40151;43.606;1.472;2022-12-07T00:58:08;13.20;;;10.18;;
54235;SDS011;40151;43.606;1.472;2022-12-07T01:00:34;13.50;;;10.00;;
54235;SDS011;40151;43.606;1.472;2022-12-07T01:03:01;14.00;;;9.65;;
54235;SDS011;40151;43.606;1.472;2022-12-07T01:05:26;13.88;;;10.27;;
54235;SDS011;40151;43.606;1.472;2022-12-07T01:07:52;13.52;;;9.60;;
54235;SDS011;40151;43.606;1.472;2022-12-07T01:10:17;14.13;;;9.48;;
54235;SDS011;40151;43.606;1.472;2022-12-07T01:12:43;13.38;;;9.43;;
54235;SDS011;40151;43.606;1.472;2022-12-07T01:15:09;13.25;;;10.23;;
54235;SDS011;40151;43.606;1.472;2022-12-07T01:17:34;13.48;;;9.75;;
54235;SDS011;40151;43.606;1.472;2022-12-07T01:20:00;12.57;;;9.27;;
54235;SDS011;40151;43.606;1.472;2022-12-07T01:22:27;14.40;;;9.45;;
54235;SDS011;40151;43.606;1.472;2022-12-07T01:24:52;12.25;;;9.18;;
54235;SDS011;40151;43.606;1.472;2022-12-07T01:27:18;11.85;;;9.00;;
54235;SDS011;40151;43.606;1.472;2022-12-07T01:29:43;11.98;;;8.85;;
54235;SDS011;40151;43.606;1.472;2022-12-07T01:32:08;13.75;;;9.52;;
54235;SDS011;40151;43.606;1.472;2022-12-07T01:34:34;13.30;;;9.25;;
54235;SDS011;40151;43.606;1.472;2022-12-07T01:36:59;14.82;;;9.50;;
54235;SDS011;40151;43.606;1.472;2022-12-07T01:39:25;12.85;;;8.60;;
54235;SDS011;40151;43.606;1.472;2022-12-07T01:41:52;11.82;;;8.73;;
54235;SDS011;40151;43.606;1.472;2022-12-07T01:44:25;12.45;;;9.35;;
54235;SDS011;40151;43.606;1.472;2022-12-07T01:46:55;12.50;;;9.25;;
54235;SDS011;40151;43.606;1.472;2022-12-07T01:49:45;12.75;;;9.15;;
54235;SDS011;40151;43.606;1.472;2022-12-07T01:54:49;13.20;;;9.20;;
54235;SDS011;40151;43.606;1.472;2022-12-07T01:57:17;12.82;;;9.38;;
54235;SDS011;40151;43.606;1.472;2022-12-07T01:59:44;12.32;;;9.40;;
54235;SDS011;40151;43.606;1.472;2022-12-07T02:02:14;11.55;;;9.23;;
54235;SDS011;40151;43.606;1.472;2022-12-07T02:04:45;13.88;;;9.07;;
54235;SDS011;40151;43.606;1.472;2022-12-07T02:07:11;12.75;;;8.68;;
54235;SDS011;40151;43.606;1.472;2022-12-07T02:09:37;12.57;;;9.35;;
54235;SDS011;40151;43.606;1.472;2022-12-07T02:12:03;13.88;;;9.27;;
54235;SDS011;40151;43.606;1.472;2022-12-07T02:14:29;14.02;;;9.43;;
54235;SDS011;40151;43.606;1.472;2022-12-07T02:20:06;10.70;;;8.20;;
54235;SDS011;40151;43.606;1.472;2022-12-07T02:28:34;12.45;;;8.90;;
54235;SDS011;40151;43.606;1.472;2022-12-07T02:31:06;12.65;;;8.43;;
54235;SDS011;40151;43.606;1.472;2022-12-07T02:33:46;12.40;;;8.77;;
54235;SDS011;40151;43.606;1.472;2022-12-07T02:36:28;12.70;;;9.13;;
54235;SDS011;40151;43.606;1.472;2022-12-07T02:39:01;13.35;;;8.65;;
54235;SDS011;40151;43.606;1.472;2022-12-07T02:41:29;12.70;;;8.48;;
54235;SDS011;40151;43.606;1.472;2022-12-07T02:44:01;11.80;;;8.32;;
54235;SDS011;40151;43.606;1.472;2022-12-07T02:46:31;12.00;;;8.23;;
54235;SDS011;40151;43.606;1.472;2022-12-07T02:49:01;14.15;;;8.48;;
54235;SDS011;40151;43.606;1.472;2022-12-07T02:51:31;12.48;;;9.02;;
54235;SDS011;40151;43.606;1.472;2022-12-07T02:53:57;12.68;;;8.13;;
54235;SDS011;40151;43.606;1.472;2022-12-07T03:10:07;14.75;;;8.90;;
54235;SDS011;40151;43.606;1.472;2022-12-07T03:12:59;11.13;;;7.75;;
54235;SDS011;40151;43.606;1.472;2022-12-07T03:15:34;11.77;;;8.15;;
54235;SDS011;40151;43.606;1.472;2022-12-07T03:18:05;12.73;;;7.88;;
54235;SDS011;40151;43.606;1.472;2022-12-07T03:20:34;13.55;;;9.00;;
54235;SDS011;40151;43.606;1.472;2022-12-07T03:23:04;12.70;;;8.10;;
54235;SDS011;40151;43.606;1.472;2022-12-07T03:25:34;12.27;;;8.40;;
54235;SDS011;40151;43.606;1.472;2022-12-07T03:28:04;12.40;;;8.93;;
54235;SDS011;40151;43.606;1.472;2022-12-07T03:30:37;12.80;;;8.60;;
54235;SDS011;40151;43.606;1.472;2022-12-07T03:33:29;11.40;;;7.90;;
54235;SDS011;40151;43.606;1.472;2022-12-07T03:36:08;12.43;;;8.52;;
54235;SDS011;40151;43.606;1.472;2022-12-07T03:38:42;12.65;;;8.52;;
54235;SDS011;40151;43.606;1.472;2022-12-07T03:41:23;12.23;;;8.52;;
54235;SDS011;40151;43.606;1.472;2022-12-07T03:43:53;12.80;;;8.25;;
54235;SDS011;40151;43.606;1.472;2022-12-07T03:51:47;11.73;;;8.57;;
54235;SDS011;40151;43.606;1.472;2022-12-07T03:54:24;12.07;;;8.65;;
54235;SDS011;40151;43.606;1.472;2022-12-07T03:56:55;11.32;;;7.97;;
54235;SDS011;40151;43.606;1.472;2022-12-07T03:59:22;10.75;;;7.93;;
54235;SDS011;40151;43.606;1.472;2022-12-07T04:01:52;11.18;;;8.32;;
54235;SDS011;40151;43.606;1.472;2022-12-07T04:04:19;13.07;;;8.68;;
54235;SDS011;40151;43.606;1.472;2022-12-07T04:06:45;11.75;;;8.30;;
54235;SDS011;40151;43.606;1.472;2022-12-07T04:09:11;12.27;;;7.80;;
54235;SDS011;40151;43.606;1.472;2022-12-07T04:11:36;13.73;;;8.50;;
54235;SDS011;40151;43.606;1.472;2022-12-07T04:14:01;12.43;;;8.13;;
54235;SDS011;40151;43.606;1.472;2022-12-07T04:19:12;12.38;;;8.40;;
54235;SDS011;40151;43.606;1.472;2022-12-07T04:21:37;11.15;;;8.55;;
54235;SDS011;40151;43.606;1.472;2022-12-07T04:24:03;11.55;;;8.50;;
54235;SDS011;40151;43.606;1.472;2022-12-07T04:26:29;11.55;;;8.60;;
54235;SDS011;40151;43.606;1.472;2022-12-07T04:28:55;9.95;;;7.97;;
54235;SDS011;40151;43.606;1.472;2022-12-07T04:31:20;10.75;;;8.30;;
54235;SDS011;40151;43.606;1.472;2022-12-07T04:33:46;9.75;;;7.30;;
54235;SDS011;40151;43.606;1.472;2022-12-07T04:36:11;11.40;;;8.25;;
54235;SDS011;40151;43.606;1.472;2022-12-07T04:38:36;13.18;;;9.00;;
54235;SDS011;40151;43.606;1.472;2022-12-07T04:41:05;11.40;;;8.65;;
54235;SDS011;40151;43.606;1.472;2022-12-07T04:43:32;10.85;;;8.20;;
54235;SDS011;40151;43.606;1.472;2022-12-07T04:45:58;12.55;;;8.90;;
54235;SDS011;40151;43.606;1.472;2022-12-07T04:48:23;11.65;;;8.65;;
54235;SDS011;40151;43.606;1.472;2022-12-07T04:50:49;12.32;;;8.57;;
54235;SDS011;40151;43.606;1.472;2022-12-07T04:53:14;12.35;;;8.82;;
54235;SDS011;40151;43.606;1.472;2022-12-07T04:55:40;10.32;;;7.80;;
54235;SDS011;40151;43.606;1.472;2022-12-07T04:58:05;12.70;;;8.88;;
54235;SDS011;40151;43.606;1.472;2022-12-07T05:00:31;12.00;;;8.02;;
54235;SDS011;40151;43.606;1.472;2022-12-07T05:02:56;12.32;;;8.52;;
54235;SDS011;40151;43.606;1.472;2022-12-07T05:05:22;12.77;;;8.95;;
54235;SDS011;40151;43.606;1.472;2022-12-07T05:07:47;13.27;;;9.20;;
54235;SDS011;40151;43.606;1.472;2022-12-07T05:10:12;12.45;;;9.82;;
54235;SDS011;40151;43.606;1.472;2022-12-07T05:12:38;11.40;;;8.88;;
54235;SDS011;40151;43.606;1.472;2022-12-07T05:15:04;12.40;;;8.85;;
54235;SDS011;40151;43.606;1.472;2022-12-07T05:17:29;13.70;;;9.25;;
54235;SDS011;40151;43.606;1.472;2022-12-07T05:19:55;12.20;;;9.18;;
54235;SDS011;40151;43.606;1.472;2022-12-07T05:22:20;12.23;;;9.35;;
54235;SDS011;40151;43.606;1.472;2022-12-07T05:24:46;12.18;;;9.00;;
54235;SDS011;40151;43.606;1.472;2022-12-07T05:27:11;11.68;;;8.52;;
54235;SDS011;40151;43.606;1.472;2022-12-07T05:29:37;12.38;;;8.77;;
54235;SDS011;40151;43.606;1.472;2022-12-07T05:32:02;11.20;;;9.13;;
54235;SDS011;40151;43.606;1.472;2022-12-07T05:34:28;12.43;;;9.13;;
54235;SDS011;40151;43.606;1.472;2022-12-07T05:36:53;10.45;;;8.82;;
54235;SDS011;40151;43.606;1.472;2022-12-07T05:39:18;11.80;;;8.95;;
54235;SDS011;40151;43.606;1.472;2022-12-07T05:41:44;11.73;;;8.75;;
54235;SDS011;40151;43.606;1.472;2022-12-07T05:44:28;11.45;;;8.27;;
54235;SDS011;40151;43.606;1.472;2022-12-07T05:46:53;13.77;;;9.60;;
54235;SDS011;40151;43.606;1.472;2022-12-07T05:49:19;11.27;;;9.27;;
54235;SDS011;40151;43.606;1.472;2022-12-07T05:51:44;13.18;;;9.07;;
54235;SDS011;40151;43.606;1.472;2022-12-07T05:54:10;11.73;;;9.50;;
54235;SDS011;40151;43.606;1.472;2022-12-07T05:56:35;11.15;;;9.18;;
54235;SDS011;40151;43.606;1.472;2022-12-07T05:59:01;12.57;;;9.50;;
54235;SDS011;40151;43.606;1.472;2022-12-07T06:01:58;12.90;;;9.40;;
54235;SDS011;40151;43.606;1.472;2022-12-07T06:04:27;12.02;;;9.27;;
54235;SDS011;40151;43.606;1.472;2022-12-07T06:06:54;12.30;;;9.52;;
54235;SDS011;40151;43.606;1.472;2022-12-07T06:09:20;12.80;;;9.30;;
54235;SDS011;40151;43.606;1.472;2022-12-07T06:11:47;12.23;;;9.00;;
54235;SDS011;40151;43.606;1.472;2022-12-07T06:14:31;11.73;;;9.32;;
54235;SDS011;40151;43.606;1.472;2022-12-07T06:16:57;13.63;;;9.85;;
54235;SDS011;40151;43.606;1.472;2022-12-07T06:19:23;13.40;;;9.18;;
54235;SDS011;40151;43.606;1.472;2022-12-07T06:21:48;12.57;;;9.52;;
54235;SDS011;40151;43.606;1.472;2022-12-07T06:24:14;13.45;;;9.85;;
54235;SDS011;40151;43.606;1.472;2022-12-07T06:26:40;12.35;;;9.35;;
54235;SDS011;40151;43.606;1.472;2022-12-07T06:29:06;11.57;;;9.63;;
54235;SDS011;40151;43.606;1.472;2022-12-07T06:31:32;13.98;;;9.88;;
54235;SDS011;40151;43.606;1.472;2022-12-07T06:33:58;13.23;;;10.05;;
54235;SDS011;40151;43.606;1.472;2022-12-07T06:36:25;13.48;;;9.55;;
54235;SDS011;40151;43.606;1.472;2022-12-07T06:38:51;14.65;;;10.05;;
54235;SDS011;40151;43.606;1.472;2022-12-07T06:41:16;14.13;;;10.00;;
54235;SDS011;40151;43.606;1.472;2022-12-07T06:43:41;14.20;;;10.38;;
54235;SDS011;40151;43.606;1.472;2022-12-07T06:46:07;12.70;;;9.20;;
54235;SDS011;40151;43.606;1.472;2022-12-07T06:48:33;13.95;;;9.88;;
54235;SDS011;40151;43.606;1.472;2022-12-07T06:50:58;14.25;;;10.18;;
54235;SDS011;40151;43.606;1.472;2022-12-07T06:53:24;12.80;;;10.18;;
54235;SDS011;40151;43.606;1.472;2022-12-07T06:55:50;12.48;;;9.70;;
54235;SDS011;40151;43.606;1.472;2022-12-07T06:58:15;12.80;;;9.55;;
54235;SDS011;40151;43.606;1.472;2022-12-07T07:00:41;13.82;;;9.55;;
54235;SDS011;40151;43.606;1.472;2022-12-07T07:03:07;14.60;;;9.98;;
54235;SDS011;40151;43.606;1.472;2022-12-07T07:05:33;12.48;;;9.63;;
54235;SDS011;40151;43.606;1.472;2022-12-07T07:07:58;14.48;;;10.15;;
54235;SDS011;40151;43.606;1.472;2022-12-07T07:10:24;13.88;;;10.57;;
54235;SDS011;40151;43.606;1.472;2022-12-07T07:12:49;14.30;;;9.95;;
54235;SDS011;40151;43.606;1.472;2022-12-07T07:15:15;13.23;;;9.98;;
54235;SDS011;40151;43.606;1.472;2022-12-07T07:17:40;12.60;;;9.57;;
54235;SDS011;40151;43.606;1.472;2022-12-07T07:20:06;12.15;;;9.20;;
54235;SDS011;40151;43.606;1.472;2022-12-07T07:22:32;12.20;;;10.15;;
54235;SDS011;40151;43.606;1.472;2022-12-07T07:24:57;13.23;;;10.30;;
54235;SDS011;40151;43.606;1.472;2022-12-07T07:27:22;13.75;;;10.25;;
54235;SDS011;40151;43.606;1.472;2022-12-07T07:29:48;13.75;;;10.07;;
54235;SDS011;40151;43.606;1.472;2022-12-07T07:32:13;14.05;;;11.02;;
54235;SDS011;40151;43.606;1.472;2022-12-07T07:34:39;12.02;;;9.80;;
54235;SDS011;40151;43.606;1.472;2022-12-07T07:37:04;12.48;;;9.43;;
54235;SDS011;40151;43.606;1.472;2022-12-07T07:39:30;12.18;;;9.60;;
54235;SDS011;40151;43.606;1.472;2022-12-07T07:41:55;13.30;;;9.63;;
54235;SDS011;40151;43.606;1.472;2022-12-07T07:44:21;13.52;;;9.90;;
54235;SDS011;40151;43.606;1.472;2022-12-07T07:46:46;12.65;;;10.13;;
54235;SDS011;40151;43.606;1.472;2022-12-07T07:49:12;12.02;;;9.75;;
54235;SDS011;40151;43.606;1.472;2022-12-07T07:51:37;13.57;;;10.23;;
54235;SDS011;40151;43.606;1.472;2022-12-07T07:54:03;14.85;;;10.48;;
54235;SDS011;40151;43.606;1.472;2022-12-07T07:56:28;16.88;;;9.95;;
54235;SDS011;40151;43.606;1.472;2022-12-07T07:58:54;15.10;;;10.48;;
54235;SDS011;40151;43.606;1.472;2022-12-07T08:01:20;13.80;;;10.25;;
54235;SDS011;40151;43.606;1.472;2022-12-07T08:03:48;12.60;;;9.70;;
54235;SDS011;40151;43.606;1.472;2022-12-07T08:06:14;13.20;;;10.23;;
54235;SDS011;40151;43.606;1.472;2022-12-07T08:08:40;12.43;;;9.60;;
54235;SDS011;40151;43.606;1.472;2022-12-07T08:11:06;14.48;;;10.05;;
54235;SDS011;40151;43.606;1.472;2022-12-07T08:13:33;12.25;;;10.43;;
54235;SDS011;40151;43.606;1.472;2022-12-07T08:16:02;12.35;;;9.70;;
54235;SDS011;40151;43.606;1.472;2022-12-07T08:18:29;13.68;;;10.18;;
54235;SDS011;40151;43.606;1.472;2022-12-07T08:21:01;12.60;;;10.27;;
54235;SDS011;40151;43.606;1.472;2022-12-07T08:23:27;13.20;;;9.73;;
54235;SDS011;40151;43.606;1.472;2022-12-07T08:25:52;13.98;;;9.85;;
54235;SDS011;40151;43.606;1.472;2022-12-07T08:28:18;12.88;;;9.95;;
54235;SDS011;40151;43.606;1.472;2022-12-07T08:30:43;13.73;;;10.38;;
54235;SDS011;40151;43.606;1.472;2022-12-07T08:33:09;14.65;;;10.63;;
54235;SDS011;40151;43.606;1.472;2022-12-07T08:35:35;12.82;;;10.25;;
54235;SDS011;40151;43.606;1.472;2022-12-07T08:38:01;13.75;;;10.40;;
54235;SDS011;40151;43.606;1.472;2022-12-07T08:40:28;12.73;;;10.15;;
54235;SDS011;40151;43.606;1.472;2022-12-07T08:42:54;12.88;;;9.98;;
54235;SDS011;40151;43.606;1.472;2022-12-07T08:45:20;13.75;;;10.55;;
54235;SDS011;40151;43.606;1.472;2022-12-07T08:50:28;12.65;;;10.15;;
54235;SDS011;40151;43.606;1.472;2022-12-07T08:52:56;15.23;;;11.20;;
54235;SDS011;40151;43.606;1.472;2022-12-07T08:55:24;14.48;;;10.65;;
54235;SDS011;40151;43.606;1.472;2022-12-07T08:57:50;13.23;;;10.02;;
54235;SDS011;40151;43.606;1.472;2022-12-07T09:00:16;12.25;;;10.15;;
54235;SDS011;40151;43.606;1.472;2022-12-07T09:02:45;13.50;;;10.90;;
54235;SDS011;40151;43.606;1.472;2022-12-07T09:05:11;13.70;;;9.95;;
54235;SDS011;40151;43.606;1.472;2022-12-07T09:07:39;11.55;;;9.57;;
54235;SDS011;40151;43.606;1.472;2022-12-07T09:10:06;13.05;;;10.18;;
54235;SDS011;40151;43.606;1.472;2022-12-07T09:12:32;14.25;;;10.45;;
54235;SDS011;40151;43.606;1.472;2022-12-07T09:14:58;12.95;;;9.73;;
54235;SDS011;40151;43.606;1.472;2022-12-07T09:17:25;12.52;;;9.57;;
54235;SDS011;40151;43.606;1.472;2022-12-07T09:19:51;13.18;;;9.88;;
54235;SDS011;40151;43.606;1.472;2022-12-07T09:22:16;13.57;;;10.50;;
54235;SDS011;40151;43.606;1.472;2022-12-07T09:24:42;12.77;;;10.20;;
54235;SDS011;40151;43.606;1.472;2022-12-07T09:27:08;12.43;;;10.00;;
54235;SDS011;40151;43.606;1.472;2022-12-07T09:29:33;12.10;;;9.05;;
54235;SDS011;40151;43.606;1.472;2022-12-07T09:31:59;13.30;;;9.38;;
54235;SDS011;40151;43.606;1.472;2022-12-07T09:34:24;12.63;;;9.82;;
54235;SDS011;40151;43.606;1.472;2022-12-07T09:36:51;13.75;;;10.30;;
54235;SDS011;40151;43.606;1.472;2022-12-07T09:39:16;12.85;;;9.43;;
54235;SDS011;40151;43.606;1.472;2022-12-07T09:41:42;13.88;;;10.48;;
54235;SDS011;40151;43.606;1.472;2022-12-07T09:44:10;13.10;;;9.60;;
54235;SDS011;40151;43.606;1.472;2022-12-07T09:46:39;13.55;;;9.65;;
54235;SDS011;40151;43.606;1.472;2022-12-07T09:49:11;14.48;;;10.63;;
54235;SDS011;40151;43.606;1.472;2022-12-07T09:51:39;11.85;;;9.23;;
54235;SDS011;40151;43.606;1.472;2022-12-07T09:54:05;13.40;;;10.40;;
54235;SDS011;40151;43.606;1.472;2022-12-07T09:56:31;13.27;;;9.73;;
54235;SDS011;40151;43.606;1.472;2022-12-07T09:59:00;12.73;;;10.10;;
54235;SDS011;40151;43.606;1.472;2022-12-07T10:01:28;12.18;;;9.88;;
54235;SDS011;40151;43.606;1.472;2022-12-07T10:04:40;12.90;;;10.18;;
54235;SDS011;40151;43.606;1.472;2022-12-07T10:06:48;14.45;;;9.48;;
54235;SDS011;40151;43.606;1.472;2022-12-07T10:09:16;14.02;;;10.48;;
54235;SDS011;40151;43.606;1.472;2022-12-07T10:14:28;13.70;;;10.13;;
54235;SDS011;40151;43.606;1.472;2022-12-07T10:16:55;12.88;;;9.90;;
54235;SDS011;40151;43.606;1.472;2022-12-07T10:21:59;14.30;;;10.48;;
54235;SDS011;40151;43.606;1.472;2022-12-07T10:24:24;13.90;;;11.13;;
54235;SDS011;40151;43.606;1.472;2022-12-07T10:26:50;13.27;;;10.43;;
54235;SDS011;40151;43.606;1.472;2022-12-07T10:29:22;13.15;;;10.35;;
54235;SDS011;40151;43.606;1.472;2022-12-07T10:32:24;12.90;;;11.13;;
54235;SDS011;40151;43.606;1.472;2022-12-07T10:34:48;13.70;;;10.70;;
54235;SDS011;40151;43.606;1.472;2022-12-07T10:37:15;13.07;;;9.80;;
54235;SDS011;40151;43.606;1.472;2022-12-07T10:39:47;13.65;;;10.43;;
54235;SDS011;40151;43.606;1.472;2022-12-07T10:44:46;13.00;;;10.07;;
54235;SDS011;40151;43.606;1.472;2022-12-07T11:17:47;13.48;;;8.95;;
54235;SDS011;40151;43.606;1.472;2022-12-07T11:23:11;14.95;;;9.48;;
54235;SDS011;40151;43.606;1.472;2022-12-07T11:34:00;12.32;;;9.10;;
54235;SDS011;40151;43.606;1.472;2022-12-07T11:36:41;11.65;;;8.82;;
54235;SDS011;40151;43.606;1.472;2022-12-07T11:39:25;12.15;;;8.75;;
54235;SDS011;40151;43.606;1.472;2022-12-07T11:42:24;10.85;;;8.57;;
54235;SDS011;40151;43.606;1.472;2022-12-07T11:44:53;12.57;;;8.68;;
54235;SDS011;40151;43.606;1.472;2022-12-07T11:50:24;11.45;;;7.82;;
54235;SDS011;40151;43.606;1.472;2022-12-07T11:55:21;11.77;;;7.60;;
54235;SDS011;40151;43.606;1.472;2022-12-07T11:57:54;9.50;;;7.90;;
54235;SDS011;40151;43.606;1.472;2022-12-07T12:00:35;9.98;;;7.97;;
54235;SDS011;40151;43.606;1.472;2022-12-07T12:03:04;10.20;;;7.90;;
54235;SDS011;40151;43.606;1.472;2022-12-07T12:05:36;10.05;;;8.23;;
54235;SDS011;40151;43.606;1.472;2022-12-07T12:08:10;11.18;;;8.18;;
54235;SDS011;40151;43.606;1.472;2022-12-07T12:11:03;9.85;;;7.40;;
54235;SDS011;40151;43.606;1.472;2022-12-07T12:22:18;9.32;;;7.22;;
54235;SDS011;40151;43.606;1.472;2022-12-07T12:24:49;9.27;;;7.20;;
54235;SDS011;40151;43.606;1.472;2022-12-07T12:27:21;9.80;;;7.60;;
54235;SDS011;40151;43.606;1.472;2022-12-07T12:29:55;10.82;;;7.55;;
54235;SDS011;40151;43.606;1.472;2022-12-07T12:32:29;11.68;;;8.02;;
54235;SDS011;40151;43.606;1.472;2022-12-07T12:35:01;8.68;;;7.25;;
54235;SDS011;40151;43.606;1.472;2022-12-07T12:42:49;10.98;;;7.30;;
54235;SDS011;40151;43.606;1.472;2022-12-07T12:45:26;9.35;;;7.03;;
54235;SDS011;40151;43.606;1.472;2022-12-07T12:47:54;10.80;;;7.40;;
54235;SDS011;40151;43.606;1.472;2022-12-07T12:50:21;9.35;;;6.88;;
54235;SDS011;40151;43.606;1.472;2022-12-07T12:52:50;9.13;;;6.75;;
54235;SDS011;40151;43.606;1.472;2022-12-07T12:55:20;9.02;;;7.25;;
54235;SDS011;40151;43.606;1.472;2022-12-07T13:00:43;9.13;;;7.03;;
54235;SDS011;40151;43.606;1.472;2022-12-07T13:03:22;8.45;;;7.03;;
54235;SDS011;40151;43.606;1.472;2022-12-07T13:06:52;10.05;;;6.82;;
54235;SDS011;40151;43.606;1.472;2022-12-07T13:08:49;9.68;;;6.70;;
54235;SDS011;40151;43.606;1.472;2022-12-07T13:11:19;9.10;;;6.82;;
54235;SDS011;40151;43.606;1.472;2022-12-07T13:13:56;8.73;;;6.40;;
54235;SDS011;40151;43.606;1.472;2022-12-07T13:16:57;8.75;;;6.80;;
54235;SDS011;40151;43.606;1.472;2022-12-07T13:24:57;9.38;;;6.80;;
54235;SDS011;40151;43.606;1.472;2022-12-07T13:27:47;7.93;;;6.32;;
54235;SDS011;40151;43.606;1.472;2022-12-07T13:30:21;9.43;;;7.05;;
54235;SDS011;40151;43.606;1.472;2022-12-07T13:32:54;8.93;;;5.97;;
54235;SDS011;40151;43.606;1.472;2022-12-07T13:35:33;7.65;;;6.28;;
54235;SDS011;40151;43.606;1.472;2022-12-07T13:38:13;9.50;;;6.55;;
54235;SDS011;40151;43.606;1.472;2022-12-07T13:40:58;9.13;;;6.32;;
54235;SDS011;40151;43.606;1.472;2022-12-07T13:43:25;8.80;;;6.13;;
54235;SDS011;40151;43.606;1.472;2022-12-07T13:45:55;9.45;;;6.07;;
54235;SDS011;40151;43.606;1.472;2022-12-07T13:51:24;8.98;;;5.63;;
54235;SDS011;40151;43.606;1.472;2022-12-07T13:53:55;7.72;;;6.18;;
54235;SDS011;40151;43.606;1.472;2022-12-07T13:56:26;10.15;;;6.18;;
54235;SDS011;40151;43.606;1.472;2022-12-07T13:58:57;8.88;;;6.13;;
54235;SDS011;40151;43.606;1.472;2022-12-07T14:01:23;8.98;;;6.60;;
54235;SDS011;40151;43.606;1.472;2022-12-07T14:03:50;8.68;;;5.80;;
54235;SDS011;40151;43.606;1.472;2022-12-07T14:06:27;8.23;;;5.75;;
54235;SDS011;40151;43.606;1.472;2022-12-07T14:11:52;9.13;;;5.93;;
54235;SDS011;40151;43.606;1.472;2022-12-07T14:14:20;7.13;;;5.43;;
54235;SDS011;40151;43.606;1.472;2022-12-07T14:16:56;7.15;;;5.57;;
54235;SDS011;40151;43.606;1.472;2022-12-07T14:27:38;7.70;;;5.85;;
54235;SDS011;40151;43.606;1.472;2022-12-07T14:30:04;7.68;;;5.40;;
54235;SDS011;40151;43.606;1.472;2022-12-07T14:32:30;7.95;;;5.57;;
54235;SDS011;40151;43.606;1.472;2022-12-07T14:37:27;8.02;;;5.70;;
54235;SDS011;40151;43.606;1.472;2022-12-07T14:39:53;7.97;;;5.03;;
54235;SDS011;40151;43.606;1.472;2022-12-07T14:42:19;7.18;;;5.63;;
54235;SDS011;40151;43.606;1.472;2022-12-07T14:44:45;8.07;;;5.03;;
54235;SDS011;40151;43.606;1.472;2022-12-07T14:47:10;7.00;;;5.13;;
54235;SDS011;40151;43.606;1.472;2022-12-07T14:49:36;7.88;;;5.32;;
54235;SDS011;40151;43.606;1.472;2022-12-07T14:52:01;7.75;;;5.22;;
54235;SDS011;40151;43.606;1.472;2022-12-07T14:54:28;7.75;;;5.03;;
54235;SDS011;40151;43.606;1.472;2022-12-07T14:56:56;7.28;;;5.43;;
54235;SDS011;40151;43.606;1.472;2022-12-07T14:59:21;7.32;;;5.30;;
54235;SDS011;40151;43.606;1.472;2022-12-07T15:01:47;7.43;;;5.10;;
54235;SDS011;40151;43.606;1.472;2022-12-07T15:04:12;8.07;;;5.68;;
54235;SDS011;40151;43.606;1.472;2022-12-07T15:06:38;6.90;;;5.20;;
54235;SDS011;40151;43.606;1.472;2022-12-07T15:09:03;6.50;;;4.72;;
54235;SDS011;40151;43.606;1.472;2022-12-07T15:11:29;8.52;;;5.43;;
54235;SDS011;40151;43.606;1.472;2022-12-07T15:13:54;8.00;;;5.60;;
54235;SDS011;40151;43.606;1.472;2022-12-07T15:16:38;8.35;;;5.97;;
54235;SDS011;40151;43.606;1.472;2022-12-07T15:19:05;6.93;;;5.00;;
54235;SDS011;40151;43.606;1.472;2022-12-07T15:21:31;7.43;;;4.97;;
54235;SDS011;40151;43.606;1.472;2022-12-07T15:23:56;8.68;;;4.95;;
54235;SDS011;40151;43.606;1.472;2022-12-07T15:26:22;7.72;;;5.22;;
54235;SDS011;40151;43.606;1.472;2022-12-07T15:28:47;6.65;;;4.78;;
54235;SDS011;40151;43.606;1.472;2022-12-07T15:31:16;7.53;;;5.13;;
54235;SDS011;40151;43.606;1.472;2022-12-07T15:33:42;8.68;;;5.00;;
54235;SDS011;40151;43.606;1.472;2022-12-07T15:36:09;7.53;;;4.90;;
54235;SDS011;40151;43.606;1.472;2022-12-07T15:38:44;6.70;;;4.78;;
54235;SDS011;40151;43.606;1.472;2022-12-07T15:41:10;8.10;;;4.20;;
54235;SDS011;40151;43.606;1.472;2022-12-07T15:43:36;6.88;;;4.78;;
54235;SDS011;40151;43.606;1.472;2022-12-07T15:46:20;7.78;;;5.03;;
54235;SDS011;40151;43.606;1.472;2022-12-07T15:48:45;6.90;;;4.97;;
54235;SDS011;40151;43.606;1.472;2022-12-07T15:51:11;7.38;;;5.07;;
54235;SDS011;40151;43.606;1.472;2022-12-07T15:53:36;6.65;;;4.55;;
54235;SDS011;40151;43.606;1.472;2022-12-07T15:56:05;7.45;;;4.93;;
54235;SDS011;40151;43.606;1.472;2022-12-07T15:58:31;6.55;;;4.55;;
54235;SDS011;40151;43.606;1.472;2022-12-07T16:00:57;7.28;;;4.82;;
54235;SDS011;40151;43.606;1.472;2022-12-07T16:03:22;7.35;;;4.95;;
54235;SDS011;40151;43.606;1.472;2022-12-07T16:05:48;7.43;;;4.78;;
54235;SDS011;40151;43.606;1.472;2022-12-07T16:08:15;7.55;;;4.70;;
54235;SDS011;40151;43.606;1.472;2022-12-07T16:10:40;6.57;;;4.65;;
54235;SDS011;40151;43.606;1.472;2022-12-07T16:13:08;6.72;;;4.70;;
54235;SDS011;40151;43.606;1.472;2022-12-07T16:15:38;7.15;;;4.60;;
54235;SDS011;40151;43.606;1.472;2022-12-07T16:18:07;7.80;;;4.60;;
54235;SDS011;40151;43.606;1.472;2022-12-07T16:20:32;6.28;;;4.60;;
54235;SDS011;40151;43.606;1.472;2022-12-07T16:22:58;6.78;;;4.60;;
54235;SDS011;40151;43.606;1.472;2022-12-07T16:25:23;6.25;;;4.47;;
54235;SDS011;40151;43.606;1.472;2022-12-07T16:27:49;6.90;;;4.40;;
54235;SDS011;40151;43.606;1.472;2022-12-07T16:30:16;7.18;;;4.78;;
54235;SDS011;40151;43.606;1.472;2022-12-07T16:32:42;7.25;;;4.53;;
54235;SDS011;40151;43.606;1.472;2022-12-07T16:35:08;8.75;;;4.47;;
54235;SDS011;40151;43.606;1.472;2022-12-07T16:37:34;6.57;;;4.45;;
54235;SDS011;40151;43.606;1.472;2022-12-07T16:39:59;7.25;;;4.72;;
54235;SDS011;40151;43.606;1.472;2022-12-07T16:42:25;6.55;;;4.35;;
54235;SDS011;40151;43.606;1.472;2022-12-07T16:44:51;7.22;;;4.32;;
54235;SDS011;40151;43.606;1.472;2022-12-07T16:47:17;7.60;;;4.70;;
54235;SDS011;40151;43.606;1.472;2022-12-07T16:49:42;6.88;;;4.30;;
54235;SDS011;40151;43.606;1.472;2022-12-07T16:52:08;7.88;;;4.80;;
54235;SDS011;40151;43.606;1.472;2022-12-07T16:54:34;7.30;;;4.78;;